createdAt,value
2023-01-29T00:02:24.187Z,7.30
2023-01-29T00:04:52.232Z,6.97
2023-01-29T00:07:24.979Z,6.40
2023-01-29T00:09:53.404Z,6.82
2023-01-29T00:12:21.213Z,6.85
2023-01-29T00:14:51.978Z,6.40
2023-01-29T00:17:19.855Z,5.82
2023-01-29T00:19:47.657Z,6.72
2023-01-29T00:22:15.464Z,6.50
2023-01-29T00:24:44.543Z,6.60
2023-01-29T00:27:12.357Z,6.70
2023-01-29T00:29:40.109Z,6.95
2023-01-29T00:32:08.020Z,7.25
2023-01-29T00:34:38.091Z,7.63
2023-01-29T00:37:09.083Z,7.90
2023-01-29T00:39:47.904Z,7.78
2023-01-29T00:42:34.879Z,8.77
2023-01-29T00:45:02.673Z,8.35
2023-01-29T00:47:36.720Z,7.93
2023-01-29T00:50:10.913Z,8.27
2023-01-29T00:52:43.691Z,8.73
2023-01-29T00:55:12.291Z,7.57
2023-01-29T00:57:40.457Z,8.07
2023-01-29T01:00:11.830Z,7.70
2023-01-29T01:02:58.046Z,7.93
2023-01-29T01:05:27.966Z,6.95
2023-01-29T01:07:58.384Z,7.25
2023-01-29T01:10:32.176Z,7.40
2023-01-29T01:13:06.040Z,6.53
2023-01-29T01:15:39.671Z,6.60
2023-01-29T01:18:07.729Z,5.97
2023-01-29T01:20:36.649Z,6.43
2023-01-29T01:23:05.258Z,5.32
2023-01-29T01:25:33.286Z,6.05
2023-01-29T01:28:01.590Z,6.47
2023-01-29T01:30:29.397Z,6.72
2023-01-29T01:32:57.526Z,6.95
2023-01-29T01:35:25.352Z,6.90
2023-01-29T01:37:53.183Z,6.65
2023-01-29T01:40:23.053Z,7.00
2023-01-29T01:42:54.125Z,6.97
2023-01-29T01:45:34.398Z,6.63
2023-01-29T01:48:14.415Z,6.05
2023-01-29T01:50:49.581Z,6.70
2023-01-29T01:53:27.413Z,6.25
2023-01-29T01:56:09.532Z,6.13
2023-01-29T01:58:59.225Z,6.68
2023-01-29T02:01:30.800Z,6.10
2023-01-29T02:04:24.458Z,5.95
2023-01-29T02:07:12.895Z,5.80
2023-01-29T02:09:59.350Z,5.18
2023-01-29T02:12:31.518Z,6.00
2023-01-29T02:15:00.635Z,6.18
2023-01-29T02:17:28.824Z,5.75
2023-01-29T02:20:24.507Z,5.45
2023-01-29T02:25:45.975Z,5.85
2023-01-29T02:28:21.870Z,5.95
2023-01-29T02:30:58.898Z,6.00
2023-01-29T02:33:46.948Z,5.50
2023-01-29T02:36:37.083Z,5.32
2023-01-29T02:39:17.159Z,5.40
2023-01-29T02:41:56.845Z,5.35
2023-01-29T02:44:38.439Z,5.45
2023-01-29T02:47:17.328Z,5.55
2023-01-29T02:49:50.562Z,5.38
2023-01-29T02:52:20.181Z,5.78
2023-01-29T02:54:59.977Z,5.82
2023-01-29T02:57:33.169Z,5.57
2023-01-29T03:00:05.038Z,5.80
2023-01-29T03:02:39.297Z,5.85
2023-01-29T03:05:13.029Z,5.38
2023-01-29T03:07:46.715Z,5.82
2023-01-29T03:10:32.040Z,5.35
2023-01-29T03:13:10.037Z,5.57
2023-01-29T03:15:47.524Z,5.40
2023-01-29T03:18:30.659Z,5.53
2023-01-29T03:21:27.780Z,5.30
2023-01-29T03:24:16.833Z,5.72
2023-01-29T03:27:03.790Z,5.80
2023-01-29T03:29:57.141Z,5.25
2023-01-29T03:32:31.257Z,5.53
2023-01-29T03:35:04.199Z,5.90
2023-01-29T03:37:42.052Z,5.68
2023-01-29T03:42:59.775Z,5.65
2023-01-29T03:45:43.028Z,5.82
2023-01-29T03:48:25.782Z,5.28
2023-01-29T03:51:17.419Z,6.13
2023-01-29T03:53:56.019Z,5.25
2023-01-29T03:56:48.237Z,4.95
2023-01-29T03:59:20.299Z,5.75
2023-01-29T04:02:28.268Z,6.00
2023-01-29T04:05:03.468Z,5.60
2023-01-29T04:07:34.981Z,5.60
2023-01-29T04:10:11.316Z,5.93
2023-01-29T04:12:49.736Z,5.50
2023-01-29T04:15:19.141Z,5.68
2023-01-29T04:17:54.528Z,5.55
2023-01-29T04:20:36.189Z,5.88
2023-01-29T04:23:07.449Z,5.72
2023-01-29T04:25:47.735Z,5.35
2023-01-29T04:28:28.643Z,6.25
2023-01-29T04:31:08.851Z,6.38
2023-01-29T04:34:05.097Z,5.43
2023-01-29T04:36:51.057Z,5.53
2023-01-29T04:39:27.027Z,5.53
2023-01-29T04:41:57.660Z,5.55
2023-01-29T04:44:45.373Z,5.15
2023-01-29T04:47:34.912Z,5.10
2023-01-29T04:50:15.467Z,5.30
2023-01-29T04:53:04.897Z,4.93
2023-01-29T04:55:40.597Z,4.70
2023-01-29T04:58:41.747Z,5.35
2023-01-29T05:01:15.155Z,4.88
2023-01-29T05:03:48.030Z,4.68
2023-01-29T05:06:18.406Z,4.78
2023-01-29T05:08:49.455Z,4.63
2023-01-29T05:11:18.821Z,5.28
2023-01-29T05:13:49.379Z,4.90
2023-01-29T05:16:24.003Z,4.60
2023-01-29T05:18:52.291Z,4.40
2023-01-29T05:21:23.547Z,4.18
2023-01-29T05:24:12.529Z,4.68
2023-01-29T05:27:00.986Z,4.50
2023-01-29T05:29:28.895Z,4.25
2023-01-29T05:31:57.061Z,4.25
2023-01-29T05:34:25.389Z,3.90
2023-01-29T05:36:54.466Z,4.20
2023-01-29T05:39:22.206Z,4.80
2023-01-29T05:41:49.934Z,7.07
2023-01-29T05:44:17.799Z,8.73
2023-01-29T05:46:46.369Z,8.95
2023-01-29T05:49:14.144Z,8.40
2023-01-29T05:51:41.979Z,8.13
2023-01-29T05:54:14.629Z,8.73
2023-01-29T05:56:42.501Z,8.90
2023-01-29T05:59:10.734Z,10.35
2023-01-29T06:01:38.475Z,9.27
2023-01-29T06:04:06.354Z,8.30
2023-01-29T06:06:34.158Z,7.45
2023-01-29T06:09:01.788Z,7.35
2023-01-29T06:11:29.535Z,6.97
2023-01-29T06:13:58.078Z,7.63
2023-01-29T06:16:25.780Z,8.95
2023-01-29T06:18:53.529Z,6.80
2023-01-29T06:21:21.311Z,7.78
2023-01-29T06:23:49.144Z,7.38
2023-01-29T06:26:17.112Z,7.60
2023-01-29T06:28:46.307Z,9.98
2023-01-29T06:31:36.877Z,10.68
2023-01-29T06:34:01.758Z,8.93
2023-01-29T06:36:29.465Z,10.30
2023-01-29T06:38:59.540Z,11.10
2023-01-29T06:41:28.771Z,10.50
2023-01-29T06:43:56.549Z,8.52
2023-01-29T06:46:24.392Z,6.60
2023-01-29T06:48:52.362Z,5.45
2023-01-29T06:51:21.499Z,4.45
2023-01-29T06:53:49.515Z,4.60
2023-01-29T06:56:17.359Z,3.78
2023-01-29T06:58:45.182Z,3.70
2023-01-29T07:01:25.364Z,3.63
2023-01-29T07:04:01.436Z,3.60
2023-01-29T07:06:29.911Z,5.85
2023-01-29T07:08:57.707Z,5.68
2023-01-29T07:11:25.655Z,5.82
2023-01-29T07:13:53.696Z,4.78
2023-01-29T07:16:21.454Z,4.20
2023-01-29T07:18:49.517Z,4.07
2023-01-29T07:21:17.736Z,4.35
2023-01-29T07:23:45.588Z,4.72
2023-01-29T07:26:13.699Z,4.10
2023-01-29T07:28:42.810Z,5.03
2023-01-29T07:31:14.462Z,4.68
2023-01-29T07:33:45.859Z,5.57
2023-01-29T07:36:16.236Z,6.00
2023-01-29T07:38:44.168Z,6.47
2023-01-29T07:41:12.667Z,6.13
2023-01-29T07:43:40.621Z,5.85
2023-01-29T07:46:09.041Z,6.13
2023-01-29T07:48:37.043Z,6.50
2023-01-29T07:51:04.919Z,5.70
2023-01-29T07:53:32.909Z,7.38
2023-01-29T07:56:00.713Z,6.38
2023-01-29T07:58:28.483Z,6.25
2023-01-29T08:00:56.473Z,6.28
2023-01-29T08:03:24.134Z,6.15
2023-01-29T08:05:51.925Z,6.40
2023-01-29T08:08:19.810Z,6.22
2023-01-29T08:10:47.682Z,7.40
2023-01-29T08:13:15.748Z,6.57
2023-01-29T08:15:46.982Z,7.47
2023-01-29T08:18:15.619Z,6.80
2023-01-29T08:20:43.574Z,6.80
2023-01-29T08:23:16.606Z,5.90
2023-01-29T08:25:44.803Z,6.15
2023-01-29T08:28:13.012Z,5.78
2023-01-29T08:30:41.121Z,6.65
2023-01-29T08:33:09.047Z,6.97
2023-01-29T08:35:37.266Z,6.30
2023-01-29T08:38:07.857Z,5.90
2023-01-29T08:40:35.873Z,5.80
2023-01-29T08:43:10.856Z,6.18
2023-01-29T08:45:41.786Z,7.80
2023-01-29T08:48:10.457Z,10.07
2023-01-29T08:50:38.614Z,9.15
2023-01-29T08:53:08.201Z,8.75
2023-01-29T08:55:40.895Z,7.45
2023-01-29T08:58:11.819Z,6.18
2023-01-29T09:00:39.788Z,6.50
2023-01-29T09:03:08.152Z,5.97
2023-01-29T09:05:41.589Z,7.05
2023-01-29T09:08:10.325Z,9.43
2023-01-29T09:10:38.402Z,10.00
2023-01-29T09:13:06.269Z,10.45
2023-01-29T09:15:34.199Z,11.70
2023-01-29T09:18:05.853Z,11.73
2023-01-29T09:20:34.218Z,9.73
2023-01-29T09:23:07.723Z,9.57
2023-01-29T09:25:36.407Z,10.32
2023-01-29T09:28:06.608Z,11.27
2023-01-29T09:30:38.014Z,10.77
2023-01-29T09:33:07.167Z,10.07
2023-01-29T09:35:34.960Z,9.07
2023-01-29T09:38:02.595Z,8.73
2023-01-29T09:40:47.897Z,8.25
2023-01-29T09:43:23.879Z,7.97
2023-01-29T09:46:05.323Z,10.80
2023-01-29T09:48:36.745Z,9.95
2023-01-29T09:51:15.530Z,8.30
2023-01-29T09:53:55.071Z,8.35
2023-01-29T09:56:28.887Z,7.13
2023-01-29T09:59:01.687Z,7.18
2023-01-29T10:01:38.961Z,6.63
2023-01-29T10:04:27.481Z,7.57
2023-01-29T10:07:22.929Z,7.68
2023-01-29T10:10:20.050Z,6.78
2023-01-29T10:13:11.098Z,6.65
2023-01-29T10:15:53.555Z,8.95
2023-01-29T10:18:33.636Z,10.27
2023-01-29T10:21:28.605Z,9.82
2023-01-29T10:24:22.429Z,9.27
2023-01-29T10:26:52.774Z,9.00
2023-01-29T10:29:22.363Z,9.23
2023-01-29T10:31:55.511Z,8.65
2023-01-29T10:34:45.002Z,7.88
2023-01-29T10:37:43.166Z,8.05
2023-01-29T10:40:26.267Z,8.50
2023-01-29T10:43:06.354Z,7.15
2023-01-29T10:45:49.955Z,8.05
2023-01-29T10:48:35.987Z,7.35
2023-01-29T10:51:25.900Z,7.93
2023-01-29T10:54:15.415Z,7.57
2023-01-29T10:57:11.515Z,8.50
2023-01-29T10:59:42.550Z,8.23
2023-01-29T11:02:18.185Z,7.75
2023-01-29T11:04:48.542Z,11.52
2023-01-29T11:07:20.338Z,7.40
2023-01-29T11:10:03.479Z,9.25
2023-01-29T11:12:35.069Z,10.00
2023-01-29T11:15:24.806Z,9.93
2023-01-29T11:18:07.323Z,7.88
2023-01-29T11:20:36.427Z,8.23
2023-01-29T11:23:04.904Z,8.35
2023-01-29T11:25:34.048Z,9.07
2023-01-29T11:28:03.126Z,9.18
2023-01-29T11:30:34.319Z,9.93
2023-01-29T11:33:25.082Z,10.55
2023-01-29T11:35:57.904Z,11.88
2023-01-29T11:38:28.492Z,13.70
2023-01-29T11:41:08.421Z,14.48
2023-01-29T11:43:36.510Z,12.65
2023-01-29T11:46:14.293Z,11.55
2023-01-29T11:48:50.404Z,12.13
2023-01-29T11:51:29.572Z,9.48
2023-01-29T11:54:00.903Z,9.63
2023-01-29T11:56:40.242Z,9.88
2023-01-29T11:59:37.707Z,10.52
2023-01-29T12:02:24.335Z,9.43
2023-01-29T12:04:52.379Z,10.27
2023-01-29T12:07:20.430Z,11.10
2023-01-29T12:09:59.913Z,12.48
2023-01-29T12:12:29.993Z,13.95
2023-01-29T12:15:26.935Z,13.48
2023-01-29T12:18:22.779Z,18.60
2023-01-29T12:20:56.285Z,21.63
2023-01-29T12:24:02.954Z,19.00
2023-01-29T12:26:38.688Z,15.93
2023-01-29T12:29:25.371Z,12.40
2023-01-29T12:32:16.648Z,10.77
2023-01-29T12:34:53.272Z,9.77
2023-01-29T12:37:28.833Z,9.27
2023-01-29T12:39:56.895Z,9.30
2023-01-29T12:42:25.793Z,8.38
2023-01-29T12:45:03.424Z,8.23
2023-01-29T12:47:37.406Z,9.63
2023-01-29T12:50:18.525Z,11.32
2023-01-29T12:52:53.294Z,13.02
2023-01-29T12:55:28.087Z,12.75
2023-01-29T12:58:00.587Z,13.45
2023-01-29T13:00:47.959Z,13.73
2023-01-29T13:03:58.240Z,13.65
2023-01-29T13:07:13.533Z,12.95
2023-01-29T13:10:05.205Z,12.75
2023-01-29T13:12:56.714Z,13.13
2023-01-29T13:15:52.127Z,13.77
2023-01-29T13:18:51.392Z,13.65
2023-01-29T13:21:23.800Z,13.95
2023-01-29T13:23:57.641Z,13.15
2023-01-29T13:26:31.971Z,13.15
2023-01-29T13:29:00.240Z,13.27
2023-01-29T13:31:31.864Z,12.13
2023-01-29T13:34:10.337Z,13.88
2023-01-29T13:36:43.781Z,15.77
2023-01-29T13:39:24.092Z,17.08
2023-01-29T13:41:53.147Z,15.40
2023-01-29T13:44:33.803Z,14.13
2023-01-29T13:47:06.638Z,13.55
2023-01-29T13:49:37.789Z,12.63
2023-01-29T13:52:27.279Z,11.88
2023-01-29T13:55:01.313Z,11.95
2023-01-29T13:57:44.307Z,11.23
2023-01-29T14:00:21.381Z,11.70
2023-01-29T14:02:55.307Z,18.00
2023-01-29T14:05:29.786Z,18.85
2023-01-29T14:08:06.190Z,17.20
2023-01-29T14:10:36.270Z,17.35
2023-01-29T14:13:21.290Z,16.17
2023-01-29T14:16:01.370Z,14.05
2023-01-29T14:18:30.936Z,13.25
2023-01-29T14:21:22.218Z,14.45
2023-01-29T14:23:59.430Z,13.27
2023-01-29T14:26:46.241Z,13.60
2023-01-29T14:29:25.450Z,12.63
2023-01-29T14:32:01.018Z,13.13
2023-01-29T14:34:42.839Z,16.50
2023-01-29T14:37:17.112Z,16.15
2023-01-29T14:39:44.800Z,53.72
2023-01-29T14:42:39.093Z,67.00
2023-01-29T14:45:32.112Z,89.50
2023-01-29T14:48:20.256Z,119.60
2023-01-29T14:50:53.363Z,87.75
2023-01-29T14:53:49.310Z,60.10
2023-01-29T14:56:23.104Z,38.05
2023-01-29T14:58:56.259Z,28.75
2023-01-29T15:01:55.792Z,23.35
2023-01-29T15:04:31.114Z,19.00
2023-01-29T15:07:11.285Z,19.35
2023-01-29T15:10:22.502Z,16.38
2023-01-29T15:13:18.915Z,13.73
2023-01-29T15:15:50.732Z,11.48
2023-01-29T15:18:40.345Z,11.05
2023-01-29T15:21:14.754Z,11.88
2023-01-29T15:23:43.448Z,10.57
2023-01-29T15:26:17.623Z,10.35
2023-01-29T15:29:02.169Z,9.32
2023-01-29T15:31:32.471Z,8.95
2023-01-29T15:34:06.262Z,8.98
2023-01-29T15:36:34.284Z,9.80
2023-01-29T15:39:24.230Z,8.65
2023-01-29T15:42:11.570Z,9.52
2023-01-29T15:44:45.009Z,9.35
2023-01-29T15:47:14.765Z,8.98
2023-01-29T15:49:43.502Z,9.35
2023-01-29T15:52:21.629Z,9.23
2023-01-29T15:54:49.896Z,9.38
2023-01-29T15:57:26.470Z,10.80
2023-01-29T15:59:56.886Z,12.50
2023-01-29T16:02:38.567Z,11.57
2023-01-29T16:05:13.825Z,9.70
2023-01-29T16:07:43.180Z,9.30
2023-01-29T16:10:21.495Z,9.50
2023-01-29T16:12:52.260Z,8.73
2023-01-29T16:15:37.310Z,8.82
2023-01-29T16:18:22.344Z,9.98
2023-01-29T16:21:01.063Z,9.50
2023-01-29T16:23:33.014Z,8.43
2023-01-29T16:26:08.627Z,8.70
2023-01-29T16:28:43.736Z,8.35
2023-01-29T16:31:14.127Z,8.20
2023-01-29T16:33:45.551Z,8.07
2023-01-29T16:36:25.199Z,8.20
2023-01-29T16:39:00.795Z,8.68
2023-01-29T16:41:36.160Z,8.27
2023-01-29T16:44:16.253Z,8.50
2023-01-29T16:46:49.341Z,8.02
2023-01-29T16:49:26.225Z,8.52
2023-01-29T16:51:56.890Z,8.43
2023-01-29T16:54:26.649Z,8.00
2023-01-29T16:57:02.908Z,7.07
2023-01-29T16:59:38.602Z,7.77
2023-01-29T17:02:22.399Z,8.57
2023-01-29T17:04:54.222Z,8.10
2023-01-29T17:07:23.895Z,8.55
2023-01-29T17:09:56.193Z,8.45
2023-01-29T17:12:27.459Z,7.82
2023-01-29T17:15:25.720Z,8.20
2023-01-29T17:17:53.437Z,7.55
2023-01-29T17:20:21.833Z,8.07
2023-01-29T17:22:50.636Z,6.95
2023-01-29T17:25:19.348Z,6.75
2023-01-29T17:27:52.797Z,6.88
2023-01-29T17:30:28.647Z,5.97
2023-01-29T17:32:58.933Z,5.30
2023-01-29T17:35:26.832Z,6.03
2023-01-29T17:37:54.783Z,6.00
2023-01-29T17:40:33.703Z,5.82
2023-01-29T17:43:02.156Z,6.20
2023-01-29T17:45:31.643Z,6.22
2023-01-29T17:47:59.496Z,6.18
2023-01-29T17:50:30.633Z,6.38
2023-01-29T17:52:58.772Z,6.55
2023-01-29T17:55:26.547Z,6.20
2023-01-29T17:57:54.447Z,6.72
2023-01-29T18:00:24.533Z,6.93
2023-01-29T18:02:52.397Z,6.10
2023-01-29T18:05:20.640Z,7.55
2023-01-29T18:07:48.722Z,7.20
2023-01-29T18:10:19.441Z,6.15
2023-01-29T18:12:48.372Z,6.68
2023-01-29T18:15:17.359Z,6.03
2023-01-29T18:17:45.707Z,6.13
2023-01-29T18:20:18.984Z,6.45
2023-01-29T18:22:48.024Z,6.35
2023-01-29T18:25:16.695Z,6.28
2023-01-29T18:27:45.554Z,6.05
2023-01-29T18:30:14.174Z,6.68
2023-01-29T18:32:41.908Z,7.15
2023-01-29T18:35:09.938Z,6.82
2023-01-29T18:37:37.824Z,6.32
2023-01-29T18:40:07.317Z,6.75
2023-01-29T18:42:36.233Z,8.27
2023-01-29T18:45:04.250Z,11.75
2023-01-29T18:47:32.112Z,14.30
2023-01-29T18:50:00.706Z,15.73
2023-01-29T18:52:28.413Z,13.20
2023-01-29T18:54:56.139Z,12.27
2023-01-29T18:58:26.784Z,10.35
2023-01-29T19:02:45.552Z,9.32
2023-01-29T19:05:13.746Z,9.15
2023-01-29T19:07:41.570Z,9.30
2023-01-29T19:10:12.921Z,8.70
2023-01-29T19:12:47.021Z,10.55
2023-01-29T19:15:17.457Z,11.98
2023-01-29T19:17:46.979Z,10.90
2023-01-29T19:20:15.913Z,10.30
2023-01-29T19:22:44.288Z,10.73
2023-01-29T19:25:12.885Z,9.32
2023-01-29T19:27:40.867Z,9.10
2023-01-29T19:30:10.515Z,8.55
2023-01-29T19:32:40.657Z,8.20
2023-01-29T19:35:14.072Z,8.93
2023-01-29T19:37:41.973Z,11.88
2023-01-29T19:40:10.364Z,21.92
2023-01-29T19:42:38.779Z,22.77
2023-01-29T19:45:07.305Z,21.45
2023-01-29T19:47:39.950Z,23.40
2023-01-29T19:50:11.297Z,20.55
2023-01-29T19:52:55.822Z,20.40
2023-01-29T19:55:23.487Z,16.52
2023-01-29T19:58:03.181Z,14.88
2023-01-29T20:00:32.492Z,14.98
2023-01-29T20:03:00.390Z,14.52
2023-01-29T20:05:30.496Z,13.23
2023-01-29T20:07:58.655Z,13.57
2023-01-29T20:10:27.918Z,13.43
2023-01-29T20:12:56.109Z,11.95
2023-01-29T20:15:23.935Z,10.75
2023-01-29T20:17:51.811Z,10.18
2023-01-29T20:20:20.166Z,9.88
2023-01-29T20:22:48.164Z,8.88
2023-01-29T20:25:16.683Z,9.18
2023-01-29T20:27:44.570Z,8.95
2023-01-29T20:30:12.767Z,9.75
2023-01-29T20:32:40.924Z,10.20
2023-01-29T20:35:09.566Z,9.07
2023-01-29T20:37:39.315Z,9.15
2023-01-29T20:40:09.791Z,9.07
2023-01-29T20:42:38.516Z,7.95
2023-01-29T20:45:07.131Z,9.00
2023-01-29T20:47:37.752Z,8.93
2023-01-29T20:50:08.803Z,9.93
2023-01-29T20:52:37.520Z,12.10
2023-01-29T20:55:08.959Z,16.73
2023-01-29T20:57:40.745Z,18.70
2023-01-29T21:00:09.468Z,15.93
2023-01-29T21:02:37.930Z,13.25
2023-01-29T21:05:06.969Z,12.57
2023-01-29T21:07:36.243Z,10.98
2023-01-29T21:10:05.475Z,11.27
2023-01-29T21:12:34.565Z,10.48
2023-01-29T21:15:02.493Z,10.23
2023-01-29T21:17:33.187Z,9.10
2023-01-29T21:20:04.451Z,8.65
2023-01-29T21:22:35.110Z,8.75
2023-01-29T21:25:04.857Z,9.35
2023-01-29T21:27:34.557Z,9.50
2023-01-29T21:30:06.000Z,9.77
2023-01-29T21:32:34.235Z,10.35
2023-01-29T21:35:01.950Z,9.10
2023-01-29T21:37:29.833Z,9.82
2023-01-29T21:39:57.679Z,9.52
2023-01-29T21:42:43.769Z,10.02
2023-01-29T21:45:11.583Z,10.05
2023-01-29T21:47:41.607Z,10.75
2023-01-29T21:50:09.987Z,10.77
2023-01-29T21:52:38.312Z,10.50
2023-01-29T21:55:06.720Z,9.27
2023-01-29T21:57:34.519Z,9.45
2023-01-29T22:00:03.153Z,9.63
2023-01-29T22:02:33.772Z,9.63
2023-01-29T22:05:20.074Z,9.43
2023-01-29T22:07:49.593Z,8.48
2023-01-29T22:10:19.897Z,7.90
2023-01-29T22:12:48.774Z,8.50
2023-01-29T22:15:21.079Z,12.63
2023-01-29T22:17:50.148Z,17.48
2023-01-29T22:20:19.302Z,13.75
2023-01-29T22:22:48.066Z,16.20
2023-01-29T22:25:20.170Z,11.63
2023-01-29T22:27:49.118Z,10.13
2023-01-29T22:30:18.459Z,9.43
2023-01-29T22:32:49.450Z,8.30
2023-01-29T22:35:18.619Z,8.18
2023-01-29T22:37:46.719Z,7.78
2023-01-29T22:40:15.130Z,7.30
2023-01-29T22:42:43.300Z,7.40
2023-01-29T22:45:12.628Z,7.25
2023-01-29T22:47:40.755Z,6.68
2023-01-29T22:50:09.141Z,6.38
2023-01-29T22:52:42.868Z,7.32
2023-01-29T22:55:12.557Z,6.90
2023-01-29T22:57:40.537Z,7.78
2023-01-29T23:00:11.202Z,6.60
2023-01-29T23:02:39.231Z,6.88
2023-01-29T23:05:07.902Z,6.22
2023-01-29T23:07:35.754Z,7.75
2023-01-29T23:10:04.488Z,8.30
2023-01-29T23:12:32.383Z,7.68
2023-01-29T23:15:00.164Z,8.00
2023-01-29T23:17:28.004Z,8.13
2023-01-29T23:19:55.891Z,7.65
2023-01-29T23:22:23.744Z,7.53
2023-01-29T23:24:52.238Z,7.20
2023-01-29T23:27:20.615Z,6.68
2023-01-29T23:29:49.442Z,5.88
2023-01-29T23:32:20.729Z,6.80
2023-01-29T23:34:49.530Z,6.45
2023-01-29T23:37:17.349Z,6.18
2023-01-29T23:39:45.262Z,6.30
2023-01-29T23:42:13.068Z,6.53
2023-01-29T23:44:42.620Z,5.68
2023-01-29T23:47:11.245Z,5.93
2023-01-29T23:49:39.415Z,6.45
2023-01-29T23:52:07.979Z,6.68
2023-01-29T23:54:35.697Z,6.47
2023-01-29T23:57:03.574Z,6.32
2023-01-29T23:59:31.451Z,6.18
